createdAt,value
2022-11-26T00:00:48.069Z,9.719250
2022-11-26T00:01:48.072Z,9.719291
2022-11-26T00:02:48.110Z,9.719259
2022-11-26T00:03:48.022Z,9.719293
2022-11-26T00:04:48.014Z,9.719274
2022-11-26T00:05:48.002Z,9.719337
2022-11-26T00:06:48.011Z,9.719328
2022-11-26T00:07:48.039Z,9.719216
2022-11-26T00:08:47.981Z,9.719325
2022-11-26T00:09:47.987Z,9.719301
2022-11-26T00:10:47.955Z,9.719281
2022-11-26T00:11:47.943Z,9.719214
2022-11-26T00:12:47.932Z,9.719219
2022-11-26T00:13:47.921Z,9.719243
2022-11-26T00:14:47.948Z,9.719212
2022-11-26T00:15:47.902Z,9.719288
2022-11-26T00:16:48.024Z,9.719322
2022-11-26T00:17:48.247Z,9.719304
2022-11-26T00:18:47.908Z,9.719260
2022-11-26T00:19:47.885Z,9.719239
2022-11-26T00:20:47.874Z,9.719217
2022-11-26T00:21:47.849Z,9.719198
2022-11-26T00:22:47.848Z,9.719217
2022-11-26T00:23:47.867Z,9.719199
2022-11-26T00:24:47.829Z,9.719105
2022-11-26T00:25:47.815Z,9.719071
2022-11-26T00:26:47.806Z,9.719010
2022-11-26T00:27:47.800Z,9.719062
2022-11-26T00:28:47.836Z,9.719156
2022-11-26T00:29:47.776Z,9.719291
2022-11-26T00:30:47.764Z,9.719190
2022-11-26T00:31:47.858Z,9.719134
2022-11-26T00:32:47.762Z,9.719131
2022-11-26T00:33:47.752Z,9.719206
2022-11-26T00:34:47.717Z,9.719143
2022-11-26T00:35:47.708Z,9.719067
2022-11-26T00:36:47.728Z,9.719056
2022-11-26T00:37:47.704Z,9.719093
2022-11-26T00:38:47.736Z,9.719124
2022-11-26T00:39:47.674Z,9.719184
2022-11-26T00:40:47.667Z,9.719086
2022-11-26T00:41:47.679Z,9.719134
2022-11-26T00:42:47.650Z,9.719149
2022-11-26T00:43:47.619Z,9.719132
2022-11-26T00:44:47.624Z,9.718999
2022-11-26T00:45:47.739Z,9.719033
2022-11-26T00:46:47.624Z,9.719116
2022-11-26T00:47:47.597Z,9.719088
2022-11-26T00:48:47.589Z,9.719078
2022-11-26T00:49:47.575Z,9.719168
2022-11-26T00:50:47.586Z,9.719232
2022-11-26T00:51:47.597Z,9.719028
2022-11-26T00:52:47.575Z,9.719049
2022-11-26T00:53:47.551Z,9.719222
2022-11-26T00:54:47.527Z,9.719187
2022-11-26T00:55:47.522Z,9.719222
2022-11-26T00:56:47.522Z,9.719161
2022-11-26T00:57:47.566Z,9.719149
2022-11-26T00:58:47.493Z,9.719140
2022-11-26T00:59:47.485Z,9.719210
2022-11-26T01:00:47.511Z,9.719257
2022-11-26T01:01:47.540Z,9.719203
2022-11-26T01:02:47.465Z,9.719103
2022-11-26T01:03:47.455Z,9.719151
2022-11-26T01:04:47.450Z,9.719109
2022-11-26T01:05:47.424Z,9.719086
2022-11-26T01:06:47.444Z,9.719056
2022-11-26T01:07:47.516Z,9.719091
2022-11-26T01:08:47.402Z,9.719037
2022-11-26T01:09:47.401Z,9.719089
2022-11-26T01:10:47.376Z,9.719110
2022-11-26T01:11:52.381Z,9.719158
2022-11-26T01:12:49.357Z,9.719173
2022-11-26T01:13:47.367Z,9.719178
2022-11-26T01:14:47.348Z,9.719218
2022-11-26T01:15:47.355Z,9.719167
2022-11-26T01:16:47.422Z,9.719188
2022-11-26T01:17:47.320Z,9.719195
2022-11-26T01:18:47.328Z,9.719268
2022-11-26T01:19:47.301Z,9.719131
2022-11-26T01:20:47.286Z,9.719132
2022-11-26T01:21:47.344Z,9.719131
2022-11-26T01:22:47.263Z,9.719049
2022-11-26T01:23:47.316Z,9.719055
2022-11-26T01:24:48.245Z,9.719080
2022-11-26T01:25:47.248Z,9.719129
2022-11-26T01:26:47.236Z,9.719154
2022-11-26T01:27:47.246Z,9.719285
2022-11-26T01:28:47.218Z,9.719275
2022-11-26T01:29:47.227Z,9.719252
2022-11-26T01:30:47.207Z,9.719119
2022-11-26T01:31:47.351Z,9.719074
2022-11-26T01:32:47.197Z,9.719147
2022-11-26T01:33:47.182Z,9.719259
2022-11-26T01:34:47.153Z,9.719164
2022-11-26T01:35:47.141Z,9.719247
2022-11-26T01:36:47.142Z,9.719324
2022-11-26T01:37:47.153Z,9.719129
2022-11-26T01:38:47.123Z,9.718967
2022-11-26T01:39:47.105Z,9.718858
2022-11-26T01:40:47.108Z,9.718878
2022-11-26T01:41:47.087Z,9.719069
2022-11-26T01:42:47.104Z,9.719031
2022-11-26T01:43:47.075Z,9.718960
2022-11-26T01:44:47.069Z,9.719054
2022-11-26T01:45:47.117Z,9.719236
2022-11-26T01:46:47.050Z,9.719234
2022-11-26T01:47:47.034Z,9.719144
2022-11-26T01:48:47.097Z,9.718944
2022-11-26T01:49:47.009Z,9.718973
2022-11-26T01:50:47.004Z,9.719215
2022-11-26T01:51:46.989Z,9.719306
2022-11-26T01:52:46.987Z,9.719236
2022-11-26T01:53:47.020Z,9.719088
2022-11-26T01:54:46.962Z,9.719028
2022-11-26T01:55:46.965Z,9.718970
2022-11-26T01:56:46.950Z,9.719063
2022-11-26T01:57:46.928Z,9.719018
2022-11-26T01:58:46.916Z,9.718863
2022-11-26T01:59:46.940Z,9.718957
2022-11-26T02:00:46.968Z,9.719144
2022-11-26T02:01:46.935Z,9.719324
2022-11-26T02:02:47.002Z,9.719080
2022-11-26T02:03:46.895Z,9.719071
2022-11-26T02:04:46.876Z,9.718998
2022-11-26T02:05:46.856Z,9.719086
2022-11-26T02:06:46.844Z,9.719103
2022-11-26T02:07:46.916Z,9.719024
2022-11-26T02:08:46.894Z,9.718959
2022-11-26T02:09:46.825Z,9.718703
2022-11-26T02:10:46.811Z,9.719065
2022-11-26T02:11:46.813Z,9.719236
2022-11-26T02:12:46.802Z,9.718789
2022-11-26T02:13:46.784Z,9.718748
2022-11-26T02:14:46.805Z,9.718333
2022-11-26T02:15:46.780Z,9.718366
2022-11-26T02:16:46.821Z,9.718442
2022-11-26T02:17:46.751Z,9.719066
2022-11-26T02:18:46.750Z,9.719084
2022-11-26T02:19:46.722Z,9.719140
2022-11-26T02:20:46.722Z,9.718848
2022-11-26T02:21:46.715Z,9.718902
2022-11-26T02:22:46.705Z,9.719176
2022-11-26T02:23:46.722Z,9.719075
2022-11-26T02:24:46.678Z,9.718828
2022-11-26T02:25:46.724Z,9.718430
2022-11-26T02:26:46.691Z,9.719507
2022-11-26T02:27:46.694Z,9.719597
2022-11-26T02:28:46.651Z,9.719515
2022-11-26T02:29:46.673Z,9.719151
2022-11-26T02:30:46.613Z,9.719291
2022-11-26T02:31:46.682Z,9.719070
2022-11-26T02:32:46.594Z,9.719191
2022-11-26T02:33:46.626Z,9.719168
2022-11-26T02:34:46.575Z,9.719129
2022-11-26T02:35:46.561Z,9.719236
2022-11-26T02:36:46.578Z,9.718988
2022-11-26T02:37:46.584Z,9.718995
2022-11-26T02:38:46.550Z,9.718961
2022-11-26T02:39:46.539Z,9.719018
2022-11-26T02:40:46.515Z,9.718986
2022-11-26T02:41:46.508Z,9.719107
2022-11-26T02:42:46.505Z,9.719183
2022-11-26T02:43:46.510Z,9.719133
2022-11-26T02:44:46.496Z,9.719163
2022-11-26T02:45:47.519Z,9.719144
2022-11-26T02:46:46.460Z,9.719134
2022-11-26T02:47:46.465Z,9.719086
2022-11-26T02:48:46.444Z,9.718965
2022-11-26T02:49:46.453Z,9.719201
2022-11-26T02:50:46.426Z,9.719190
2022-11-26T02:51:46.410Z,9.719116
2022-11-26T02:52:46.398Z,9.719115
2022-11-26T02:53:46.393Z,9.719079
2022-11-26T02:54:46.394Z,9.719092
2022-11-26T02:55:46.401Z,9.719228
2022-11-26T02:56:46.360Z,9.719280
2022-11-26T02:57:46.352Z,9.719103
2022-11-26T02:58:46.340Z,9.718970
2022-11-26T02:59:46.330Z,9.718948
2022-11-26T03:00:46.403Z,9.719018
2022-11-26T03:01:46.312Z,9.719110
2022-11-26T03:02:46.302Z,9.719135
2022-11-26T03:03:46.348Z,9.719077
2022-11-26T03:04:46.296Z,9.718968
2022-11-26T03:05:46.291Z,9.718863
2022-11-26T03:06:46.268Z,9.718936
2022-11-26T03:07:46.328Z,9.719042
2022-11-26T03:08:46.247Z,9.718971
2022-11-26T03:09:46.293Z,9.718996
2022-11-26T03:10:46.220Z,9.719021
2022-11-26T03:11:46.306Z,9.719024
2022-11-26T03:12:46.222Z,9.719017
2022-11-26T03:13:46.203Z,9.719169
2022-11-26T03:18:14.845Z,9.718981
2022-11-26T03:19:14.855Z,9.719035
2022-11-26T03:20:14.835Z,9.718984
2022-11-26T03:21:14.815Z,9.719007
2022-11-26T03:22:14.825Z,9.718982
2022-11-26T03:23:14.795Z,9.719035
2022-11-26T03:24:14.791Z,9.719105
2022-11-26T03:25:14.778Z,9.718940
2022-11-26T03:26:14.782Z,9.718912
2022-11-26T03:27:14.769Z,9.718816
2022-11-26T03:28:14.753Z,9.718987
2022-11-26T03:29:14.735Z,9.719070
2022-11-26T03:30:14.737Z,9.719148
2022-11-26T03:31:14.754Z,9.719162
2022-11-26T03:32:14.744Z,9.719083
2022-11-26T03:33:14.694Z,9.719066
2022-11-26T03:34:14.686Z,9.719041
2022-11-26T03:35:14.678Z,9.719034
2022-11-26T03:36:14.670Z,9.719027
2022-11-26T03:37:14.681Z,9.718896
2022-11-26T03:38:14.646Z,9.719028
2022-11-26T03:39:14.642Z,9.719051
2022-11-26T03:40:14.633Z,9.719052
2022-11-26T03:41:14.615Z,9.718997
2022-11-26T03:42:14.621Z,9.719030
2022-11-26T03:43:14.595Z,9.719068
2022-11-26T03:44:14.603Z,9.719034
2022-11-26T03:45:14.576Z,9.719039
2022-11-26T03:46:14.602Z,9.719098
2022-11-26T03:47:14.581Z,9.719125
2022-11-26T03:48:14.534Z,9.719131
2022-11-26T03:49:14.543Z,9.719083
2022-11-26T03:50:14.532Z,9.719028
2022-11-26T03:51:14.511Z,9.719094
2022-11-26T03:52:14.525Z,9.719194
2022-11-26T03:53:14.498Z,9.719234
2022-11-26T03:54:14.503Z,9.719614
2022-11-26T03:55:14.473Z,9.719830
2022-11-26T03:56:14.463Z,9.719599
2022-11-26T03:57:14.454Z,9.719418
2022-11-26T03:58:14.451Z,9.719917
2022-11-26T03:59:14.455Z,9.719501
2022-11-26T04:00:14.420Z,9.719385
2022-11-26T04:01:14.491Z,9.719924
2022-11-26T04:02:14.413Z,9.719718
2022-11-26T04:03:14.420Z,9.719472
2022-11-26T04:04:14.407Z,9.719270
2022-11-26T04:05:14.379Z,9.719383
2022-11-26T04:06:14.361Z,9.719338
2022-11-26T04:07:14.451Z,9.719436
2022-11-26T04:08:14.351Z,9.719501
2022-11-26T04:09:14.357Z,9.719129
2022-11-26T04:10:14.326Z,9.719117
2022-11-26T04:11:14.329Z,9.719928
2022-11-26T04:12:14.303Z,9.719173
2022-11-26T04:13:14.314Z,9.719551
2022-11-26T04:14:14.289Z,9.719758
2022-11-26T04:15:14.285Z,9.719486
2022-11-26T04:16:14.284Z,9.719390
2022-11-26T04:17:15.278Z,9.719255
2022-11-26T04:18:14.254Z,9.719123
2022-11-26T04:19:14.236Z,9.719442
2022-11-26T04:20:14.258Z,9.719623
2022-11-26T04:21:14.223Z,9.719072
2022-11-26T04:22:14.211Z,9.719044
2022-11-26T04:23:14.217Z,9.719074
2022-11-26T04:24:14.213Z,9.719070
2022-11-26T04:25:14.184Z,9.719071
2022-11-26T04:26:14.177Z,9.719114
2022-11-26T04:27:14.165Z,9.719176
2022-11-26T04:28:14.154Z,9.719109
2022-11-26T04:29:14.171Z,9.719049
2022-11-26T04:30:14.127Z,9.719033
2022-11-26T04:31:14.184Z,9.719106
2022-11-26T04:32:14.118Z,9.719014
2022-11-26T04:33:14.134Z,9.719089
2022-11-26T04:34:14.094Z,9.719076
2022-11-26T04:35:14.084Z,9.719141
2022-11-26T04:36:14.075Z,9.719139
2022-11-26T04:37:14.064Z,9.719013
2022-11-26T04:38:14.075Z,9.719172
2022-11-26T04:39:14.048Z,9.719039
2022-11-26T04:40:14.052Z,9.719120
2022-11-26T04:41:14.036Z,9.719030
2022-11-26T04:42:14.025Z,9.719078
2022-11-26T04:43:14.029Z,9.719231
2022-11-26T04:44:14.010Z,9.719057
2022-11-26T04:45:14.004Z,9.718996
2022-11-26T04:46:14.018Z,9.719063
2022-11-26T04:47:13.986Z,9.719125
2022-11-26T04:48:13.960Z,9.719095
2022-11-26T04:49:13.976Z,9.719215
2022-11-26T04:50:13.967Z,9.719264
2022-11-26T04:51:13.925Z,9.719206
2022-11-26T04:52:13.919Z,9.719187
2022-11-26T04:53:13.906Z,9.719202
2022-11-26T04:54:13.896Z,9.719131
2022-11-26T04:55:13.912Z,9.719183
2022-11-26T04:56:13.896Z,9.719073
2022-11-26T04:57:13.900Z,9.719057
2022-11-26T04:58:13.858Z,9.719132
2022-11-26T04:59:13.881Z,9.719106
2022-11-26T05:00:13.838Z,9.719141
2022-11-26T05:01:13.863Z,9.719167
2022-11-26T05:02:13.896Z,9.719136
2022-11-26T05:03:13.808Z,9.718998
2022-11-26T05:04:13.810Z,9.719184
2022-11-26T05:05:13.797Z,9.719192
2022-11-26T05:06:13.790Z,9.719230
2022-11-26T05:07:13.814Z,9.719024
2022-11-26T05:08:13.762Z,9.719288
2022-11-26T05:09:13.847Z,9.719316
2022-11-26T05:10:13.772Z,9.719543
2022-11-26T05:11:13.741Z,9.718963
2022-11-26T05:12:13.748Z,9.719373
2022-11-26T05:13:14.307Z,9.719260
2022-11-26T05:14:13.706Z,9.719380
2022-11-26T05:15:13.707Z,9.719151
2022-11-26T05:16:13.738Z,9.719315
2022-11-26T05:17:13.678Z,9.719340
2022-11-26T05:18:13.703Z,9.719142
2022-11-26T05:19:13.655Z,9.719187
2022-11-26T05:20:13.660Z,9.719091
2022-11-26T05:21:13.629Z,9.719193
2022-11-26T05:22:13.629Z,9.719337
2022-11-26T05:23:13.632Z,9.719316
2022-11-26T05:24:13.617Z,9.719324
2022-11-26T05:25:13.630Z,9.719438
2022-11-26T05:26:13.584Z,9.719420
2022-11-26T05:27:13.581Z,9.719312
2022-11-26T05:28:13.603Z,9.719353
2022-11-26T05:29:13.565Z,9.719206
2022-11-26T05:30:13.543Z,9.719218
2022-11-26T05:31:13.643Z,9.718954
2022-11-26T05:32:13.524Z,9.719160
2022-11-26T05:33:13.543Z,9.719071
2022-11-26T05:34:13.512Z,9.719355
2022-11-26T05:35:13.506Z,9.719254
2022-11-26T05:36:13.519Z,9.719193
2022-11-26T05:37:13.472Z,9.719187
2022-11-26T05:38:13.477Z,9.719172
2022-11-26T05:39:13.460Z,9.718907
2022-11-26T05:40:13.454Z,9.718878
2022-11-26T05:41:13.462Z,9.718932
2022-11-26T05:42:13.429Z,9.718667
2022-11-26T05:43:13.423Z,9.718702
2022-11-26T05:44:13.459Z,9.718641
2022-11-26T05:45:13.412Z,9.718968
2022-11-26T05:46:13.442Z,9.718945
2022-11-26T05:47:13.391Z,9.718870
2022-11-26T05:48:13.378Z,9.718978
2022-11-26T05:49:13.388Z,9.719145
2022-11-26T05:50:13.351Z,9.719252
2022-11-26T05:51:13.342Z,9.719008
2022-11-26T05:52:13.340Z,9.719089
2022-11-26T05:53:13.313Z,9.719103
2022-11-26T05:54:13.302Z,9.719051
2022-11-26T05:55:13.310Z,9.719121
2022-11-26T05:56:13.290Z,9.719152
2022-11-26T05:57:13.285Z,9.719137
2022-11-26T05:58:13.270Z,9.719015
2022-11-26T05:59:13.261Z,9.719027
2022-11-26T06:00:13.263Z,9.719096
2022-11-26T06:01:13.241Z,9.719024
2022-11-26T06:02:13.354Z,9.719108
2022-11-26T06:03:17.059Z,9.719050
2022-11-26T06:04:14.214Z,9.719247
2022-11-26T06:05:13.202Z,9.719115
2022-11-26T06:06:13.198Z,9.718971
2022-11-26T06:07:13.225Z,9.719103
2022-11-26T06:08:13.194Z,9.719093
2022-11-26T06:09:13.158Z,9.719240
2022-11-26T06:10:13.190Z,9.719299
2022-11-26T06:11:13.131Z,9.719084
2022-11-26T06:12:14.133Z,9.719083
2022-11-26T06:13:13.118Z,9.719021
2022-11-26T06:14:13.120Z,9.719111
2022-11-26T06:15:13.097Z,9.719028
2022-11-26T06:16:13.160Z,9.719064
2022-11-26T06:17:13.103Z,9.719256
2022-11-26T06:18:13.067Z,9.719448
2022-11-26T06:19:13.068Z,9.719365
2022-11-26T06:20:13.059Z,9.719261
2022-11-26T06:21:13.036Z,9.719353
2022-11-26T06:22:13.039Z,9.719298
2022-11-26T06:23:13.024Z,9.719240
2022-11-26T06:24:13.011Z,9.719460
2022-11-26T06:25:13.026Z,9.719709
2022-11-26T06:26:12.985Z,9.719593
2022-11-26T06:27:12.984Z,9.719604
2022-11-26T06:28:12.984Z,9.719482
2022-11-26T06:29:12.973Z,9.719446
2022-11-26T06:30:12.968Z,9.719521
2022-11-26T06:31:13.016Z,9.719498
2022-11-26T06:32:12.933Z,9.719418
2022-11-26T06:33:12.929Z,9.719404
2022-11-26T06:34:12.914Z,9.719486
2022-11-26T06:35:12.903Z,9.719547
2022-11-26T06:36:12.914Z,9.719560
2022-11-26T06:37:12.884Z,9.719460
2022-11-26T06:38:12.877Z,9.719551
2022-11-26T06:39:12.897Z,9.719506
2022-11-26T06:40:12.865Z,9.719257
2022-11-26T06:41:12.850Z,9.719531
2022-11-26T06:42:12.839Z,9.719418
2022-11-26T06:43:12.819Z,9.719522
2022-11-26T06:44:12.828Z,9.719357
2022-11-26T06:45:12.806Z,9.719356
2022-11-26T06:46:12.875Z,9.719090
2022-11-26T06:47:12.795Z,9.719150
2022-11-26T06:48:12.779Z,9.719233
2022-11-26T06:49:12.825Z,9.719380
2022-11-26T06:50:12.749Z,9.719238
2022-11-26T06:51:12.757Z,9.719271
2022-11-26T06:52:12.733Z,9.719316
2022-11-26T06:53:12.727Z,9.719280
2022-11-26T06:54:12.733Z,9.719363
2022-11-26T06:55:12.711Z,9.719367
2022-11-26T06:56:18.037Z,9.719268
2022-11-26T06:57:14.686Z,9.719087
2022-11-26T06:58:12.681Z,9.719154
2022-11-26T06:59:12.671Z,9.719131
2022-11-26T07:00:12.657Z,9.719090
2022-11-26T07:01:12.703Z,9.719254
2022-11-26T07:02:12.684Z,9.719130
2022-11-26T07:03:12.633Z,9.718958
2022-11-26T07:04:12.639Z,9.718895
2022-11-26T07:05:12.615Z,9.719145
2022-11-26T07:06:12.595Z,9.719250
2022-11-26T07:07:12.641Z,9.719221
2022-11-26T07:08:12.580Z,9.719278
2022-11-26T07:09:12.584Z,9.719124
2022-11-26T07:10:12.564Z,9.719245
2022-11-26T07:11:12.559Z,9.719281
2022-11-26T07:12:12.539Z,9.719201
2022-11-26T07:13:12.540Z,9.718995
2022-11-26T07:14:12.548Z,9.719062
2022-11-26T07:15:12.522Z,9.719064
2022-11-26T07:16:12.567Z,9.719026
2022-11-26T07:17:12.482Z,9.718992
2022-11-26T07:18:12.492Z,9.719000
2022-11-26T07:19:12.516Z,9.719130
2022-11-26T07:20:12.471Z,9.719159
2022-11-26T07:21:12.460Z,9.719117
2022-11-26T07:22:12.472Z,9.719049
2022-11-26T07:23:12.444Z,9.719184
2022-11-26T07:24:12.428Z,9.719216
2022-11-26T07:25:13.032Z,9.718960
2022-11-26T07:26:13.400Z,9.719329
2022-11-26T07:27:12.399Z,9.719408
2022-11-26T07:28:12.383Z,9.719459
2022-11-26T07:29:12.371Z,9.719220
2022-11-26T07:30:12.374Z,9.719263
2022-11-26T07:31:16.580Z,9.719193
2022-11-26T07:32:12.337Z,9.719233
2022-11-26T07:33:12.326Z,9.719316
2022-11-26T07:34:12.348Z,9.719482
2022-11-26T07:35:12.319Z,9.719340
2022-11-26T07:36:12.303Z,9.719242
2022-11-26T07:37:12.292Z,9.719105
2022-11-26T07:38:12.286Z,9.719198
2022-11-26T07:39:12.288Z,9.719161
2022-11-26T07:40:12.266Z,9.719240
2022-11-26T07:41:12.253Z,9.719292
2022-11-26T07:42:12.262Z,9.719245
2022-11-26T07:43:12.230Z,9.719158
2022-11-26T07:44:12.243Z,9.719175
2022-11-26T07:45:12.232Z,9.718946
2022-11-26T07:46:12.276Z,9.718981
2022-11-26T07:47:12.196Z,9.718925
2022-11-26T07:48:16.711Z,9.719059
2022-11-26T07:49:13.173Z,9.719060
2022-11-26T07:50:12.173Z,9.718874
2022-11-26T07:51:13.163Z,9.719064
2022-11-26T07:52:12.141Z,9.719127
2022-11-26T07:53:12.140Z,9.719130
2022-11-26T07:54:12.144Z,9.719209
2022-11-26T07:55:12.723Z,9.719123
2022-11-26T07:56:13.113Z,9.719144
2022-11-26T07:57:12.119Z,9.718975
2022-11-26T07:58:12.089Z,9.718983
2022-11-26T07:59:12.080Z,9.719041
2022-11-26T08:00:12.079Z,9.718997
2022-11-26T08:01:12.213Z,9.718987
2022-11-26T08:02:12.051Z,9.718967
2022-11-26T08:03:12.044Z,9.718997
2022-11-26T08:04:12.022Z,9.719067
2022-11-26T08:05:12.036Z,9.719095
2022-11-26T08:06:12.073Z,9.719070
2022-11-26T08:07:16.083Z,9.719135
2022-11-26T08:08:13.114Z,9.719152
2022-11-26T08:09:11.985Z,9.719109
2022-11-26T08:10:11.986Z,9.719087
2022-11-26T08:11:11.958Z,9.719071
2022-11-26T08:12:11.953Z,9.719201
2022-11-26T08:13:11.939Z,9.719112
2022-11-26T08:14:11.952Z,9.719072
2022-11-26T08:15:11.920Z,9.719131
2022-11-26T08:16:11.936Z,9.719085
2022-11-26T08:17:11.923Z,9.719391
2022-11-26T08:18:11.888Z,9.719354
2022-11-26T08:19:11.884Z,9.720100
2022-11-26T08:20:11.903Z,9.719516
2022-11-26T08:21:11.865Z,9.719175
2022-11-26T08:22:11.842Z,9.719129
2022-11-26T08:23:11.837Z,9.718872
2022-11-26T08:24:11.837Z,9.719048
2022-11-26T08:25:11.845Z,9.719113
2022-11-26T08:27:13.822Z,9.719051
2022-11-26T08:28:11.788Z,9.719062
2022-11-26T08:29:11.803Z,9.719024
2022-11-26T08:30:11.797Z,9.719114
2022-11-26T08:31:11.800Z,9.719340
2022-11-26T08:32:11.762Z,9.719311
2022-11-26T08:33:11.742Z,9.719268
2022-11-26T08:34:11.742Z,9.719309
2022-11-26T08:35:11.746Z,9.718765
2022-11-26T08:36:11.742Z,9.719160
2022-11-26T08:37:11.713Z,9.719372
2022-11-26T08:38:11.693Z,9.719204
2022-11-26T08:39:11.693Z,9.719310
2022-11-26T08:40:13.928Z,9.719378
2022-11-26T08:41:12.690Z,9.719351
2022-11-26T08:42:11.669Z,9.719338
2022-11-26T08:43:11.652Z,9.719210
2022-11-26T08:44:11.676Z,9.719238
2022-11-26T08:45:11.630Z,9.719321
2022-11-26T08:46:11.708Z,9.719344
2022-11-26T08:47:11.641Z,9.719297
2022-11-26T08:48:11.592Z,9.719272
2022-11-26T08:49:11.585Z,9.719262
2022-11-26T08:50:11.576Z,9.719241
2022-11-26T08:51:11.565Z,9.719202
2022-11-26T08:52:11.578Z,9.719249
2022-11-26T08:53:11.549Z,9.719219
2022-11-26T08:54:11.542Z,9.719267
2022-11-26T08:55:11.518Z,9.719243
2022-11-26T08:56:12.519Z,9.719248
2022-11-26T08:57:11.529Z,9.719310
2022-11-26T08:58:11.521Z,9.719292
2022-11-26T08:59:11.504Z,9.719276
2022-11-26T09:00:11.484Z,9.719214
2022-11-26T09:01:11.519Z,9.719236
2022-11-26T09:02:14.802Z,9.719170
2022-11-26T09:03:13.517Z,9.719273
2022-11-26T09:04:11.432Z,9.719195
2022-11-26T09:05:11.427Z,9.719150
2022-11-26T09:06:11.411Z,9.719154
2022-11-26T09:07:11.482Z,9.719222
2022-11-26T09:08:11.399Z,9.719252
2022-11-26T09:09:11.397Z,9.718904
2022-11-26T09:10:11.392Z,9.718981
2022-11-26T09:11:11.363Z,9.719069
2022-11-26T09:12:11.364Z,9.719146
2022-11-26T09:13:11.353Z,9.719183
2022-11-26T09:14:11.340Z,9.719237
2022-11-26T09:15:11.352Z,9.719277
2022-11-26T09:16:43.296Z,9.719338
2022-11-26T09:17:11.318Z,9.719129
2022-11-26T09:18:11.311Z,9.719126
2022-11-26T09:19:11.291Z,9.719153
2022-11-26T09:20:11.301Z,9.719160
2022-11-26T09:21:11.265Z,9.719253
2022-11-26T09:22:11.308Z,9.719265
2022-11-26T09:23:11.252Z,9.719293
2022-11-26T09:24:11.256Z,9.719321
2022-11-26T09:25:12.310Z,9.719395
2022-11-26T09:26:11.219Z,9.719376
2022-11-26T09:27:11.216Z,9.719320
2022-11-26T09:28:11.203Z,9.719290
2022-11-26T09:29:12.207Z,9.719296
2022-11-26T09:30:11.183Z,9.719224
2022-11-26T09:31:11.188Z,9.719231
2022-11-26T09:32:31.155Z,9.719231
2022-11-26T09:33:13.149Z,9.719231
2022-11-26T09:34:11.131Z,9.719231
2022-11-26T09:35:11.142Z,9.719231
2022-11-26T09:36:11.121Z,9.719231
2022-11-26T09:37:11.119Z,9.719231
2022-11-26T09:38:11.126Z,9.719231
2022-11-26T09:39:11.096Z,9.719231
2022-11-26T09:40:11.079Z,9.719452
2022-11-26T09:41:11.082Z,9.719438
2022-11-26T09:42:11.079Z,9.719271
2022-11-26T09:43:11.081Z,9.719212
2022-11-26T09:44:11.029Z,9.719200
2022-11-26T09:45:12.039Z,9.719205
2022-11-26T09:46:11.099Z,9.719169
2022-11-26T09:47:12.828Z,9.719240
2022-11-26T09:48:12.024Z,9.719278
2022-11-26T09:49:10.999Z,9.719281
2022-11-26T09:50:11.010Z,9.719254
2022-11-26T09:51:10.989Z,9.719368
2022-11-26T09:52:10.999Z,9.719271
2022-11-26T09:53:10.965Z,9.719255
2022-11-26T09:54:11.012Z,9.719297
2022-11-26T09:55:11.005Z,9.719123
2022-11-26T09:56:10.940Z,9.719233
2022-11-26T09:57:10.910Z,9.719337
2022-11-26T09:58:10.905Z,9.719280
2022-11-26T09:59:10.909Z,9.719349
2022-11-26T10:00:10.895Z,9.719426
2022-11-26T10:01:10.949Z,9.719418
2022-11-26T10:02:10.909Z,9.719349
2022-11-26T10:03:10.871Z,9.719434
2022-11-26T10:04:10.860Z,9.719462
2022-11-26T10:05:10.869Z,9.719480
2022-11-26T10:06:10.851Z,9.719394
2022-11-26T10:07:10.850Z,9.719382
2022-11-26T10:08:10.827Z,9.719395
2022-11-26T10:09:10.808Z,9.719379
2022-11-26T10:10:10.807Z,9.719131
2022-11-26T10:11:10.788Z,9.719339
2022-11-26T10:12:24.452Z,9.719071
2022-11-26T10:13:19.108Z,9.719135
2022-11-26T10:14:12.760Z,9.719100
2022-11-26T10:15:10.760Z,9.718916
2022-11-26T10:16:10.808Z,9.719418
2022-11-26T10:17:10.721Z,9.719352
2022-11-26T10:18:10.714Z,9.719227
2022-11-26T10:19:10.711Z,9.719506
2022-11-26T10:20:10.695Z,9.719399
2022-11-26T10:21:10.705Z,9.719338
2022-11-26T10:22:10.676Z,9.719147
2022-11-26T10:23:10.648Z,9.719611
2022-11-26T10:24:10.649Z,9.719103
2022-11-26T10:25:10.683Z,9.719268
2022-11-26T10:26:10.640Z,9.719281
2022-11-26T10:27:11.635Z,9.719164
2022-11-26T10:28:10.631Z,9.719314
2022-11-26T10:29:10.608Z,9.719125
2022-11-26T10:30:10.609Z,9.719302
2022-11-26T10:31:10.679Z,9.719280
2022-11-26T10:32:10.599Z,9.719407
2022-11-26T10:33:10.554Z,9.719420
2022-11-26T10:34:10.544Z,9.719350
2022-11-26T10:35:10.543Z,9.719239
2022-11-26T10:36:10.539Z,9.719380
2022-11-26T10:37:10.539Z,9.719504
2022-11-26T10:38:10.526Z,9.719422
2022-11-26T10:39:10.515Z,9.719572
2022-11-26T10:40:10.500Z,9.719617
2022-11-26T10:41:10.486Z,9.719629
2022-11-26T10:42:10.475Z,9.719534
2022-11-26T10:43:10.492Z,9.719638
2022-11-26T10:44:10.467Z,9.719366
2022-11-26T10:45:12.309Z,9.719631
2022-11-26T10:46:11.448Z,9.719595
2022-11-26T10:47:10.444Z,9.719585
2022-11-26T10:48:10.440Z,9.719535
2022-11-26T10:49:10.424Z,9.719662
2022-11-26T10:50:31.815Z,9.719693
2022-11-26T10:51:12.416Z,9.719589
2022-11-26T10:52:10.380Z,9.719587
2022-11-26T10:53:10.413Z,9.719587
2022-11-26T10:54:10.354Z,9.719755
2022-11-26T10:55:10.350Z,9.719681
2022-11-26T10:56:10.350Z,9.719733
2022-11-26T10:57:10.329Z,9.719807
2022-11-26T10:58:10.351Z,9.719766
2022-11-26T10:59:10.302Z,9.719789
2022-11-26T11:00:10.317Z,9.719784
2022-11-26T11:01:10.406Z,9.719784
2022-11-26T11:02:10.332Z,9.719754
2022-11-26T11:03:10.264Z,9.719678
2022-11-26T11:04:10.311Z,9.720023
2022-11-26T11:05:10.251Z,9.720023
2022-11-26T11:06:10.240Z,9.720023
2022-11-26T11:07:12.074Z,9.720023
2022-11-26T11:08:10.221Z,9.720023
2022-11-26T11:09:10.205Z,9.719762
2022-11-26T11:10:10.198Z,9.719740
2022-11-26T11:11:10.212Z,9.719740
2022-11-26T11:12:10.176Z,9.719740
2022-11-26T11:13:10.179Z,9.719740
2022-11-26T11:14:10.157Z,9.719740
2022-11-26T11:15:10.165Z,9.719740
2022-11-26T11:16:10.191Z,9.719740
2022-11-26T11:17:10.160Z,9.719740
2022-11-26T11:18:10.114Z,9.719722
2022-11-26T11:19:10.122Z,9.719495
2022-11-26T11:20:10.089Z,9.719292
2022-11-26T11:21:10.080Z,9.719240
2022-11-26T11:22:10.096Z,9.719178
2022-11-26T11:23:10.063Z,9.719276
2022-11-26T11:24:10.076Z,9.719316
2022-11-26T11:25:10.094Z,9.719407
2022-11-26T11:26:10.040Z,9.719315
2022-11-26T11:27:10.035Z,9.719137
2022-11-26T11:28:12.359Z,9.719251
2022-11-26T11:29:11.008Z,9.719263
2022-11-26T11:30:09.992Z,9.719245
2022-11-26T11:31:10.003Z,9.719217
2022-11-26T11:32:09.984Z,9.719134
2022-11-26T11:33:09.987Z,9.719186
2022-11-26T11:34:09.971Z,9.719264
2022-11-26T11:35:09.945Z,9.719241
2022-11-26T11:36:09.941Z,9.719294
2022-11-26T11:37:14.415Z,9.719286
2022-11-26T11:38:10.913Z,9.719279
2022-11-26T11:39:09.897Z,9.719290
2022-11-26T11:40:13.024Z,9.719291
2022-11-26T11:41:10.868Z,9.719227
2022-11-26T11:42:09.859Z,9.719288
2022-11-26T11:43:09.870Z,9.719337
2022-11-26T11:44:09.843Z,9.719255
2022-11-26T11:45:09.837Z,9.719241
2022-11-26T11:46:10.006Z,9.719328
2022-11-26T11:47:09.833Z,9.719357
2022-11-26T11:48:09.803Z,9.719325
2022-11-26T11:49:09.799Z,9.719323